sensor_id;sensor_type;location;lat;lon;timestamp;pressure;altitude;pressure_sealevel;temperature;humidity
61384;BME280;63511;49.346;8.798;2023-03-18T00:01:59;99765.19;;;10.14;74.63
61384;BME280;63511;49.346;8.798;2023-03-18T00:04:27;99759.56;;;10.18;75.08
61384;BME280;63511;49.346;8.798;2023-03-18T00:06:55;99763.34;;;9.84;75.99
61384;BME280;63511;49.346;8.798;2023-03-18T00:09:23;99759.22;;;9.99;76.02
61384;BME280;63511;49.346;8.798;2023-03-18T00:11:49;99765.25;;;9.60;77.35
61384;BME280;63511;49.346;8.798;2023-03-18T00:14:16;99768.31;;;9.69;76.39
61384;BME280;63511;49.346;8.798;2023-03-18T00:16:43;99768.59;;;10.14;74.51
61384;BME280;63511;49.346;8.798;2023-03-18T00:19:10;99790.91;;;10.21;74.30
61384;BME280;63511;49.346;8.798;2023-03-18T00:21:38;99788.09;;;9.89;74.79
61384;BME280;63511;49.346;8.798;2023-03-18T00:24:05;99785.41;;;9.60;75.94
61384;BME280;63511;49.346;8.798;2023-03-18T00:26:31;99793.06;;;10.02;74.40
61384;BME280;63511;49.346;8.798;2023-03-18T00:28:58;99788.56;;;10.11;75.19
61384;BME280;63511;49.346;8.798;2023-03-18T00:31:25;99789.53;;;10.13;75.36
61384;BME280;63511;49.346;8.798;2023-03-18T00:33:53;99782.06;;;9.87;76.58
61384;BME280;63511;49.346;8.798;2023-03-18T00:36:19;99789.13;;;9.93;75.80
61384;BME280;63511;49.346;8.798;2023-03-18T00:38:52;99786.84;;;9.69;76.84
61384;BME280;63511;49.346;8.798;2023-03-18T00:41:22;99793.66;;;9.98;74.82
61384;BME280;63511;49.346;8.798;2023-03-18T00:43:49;99798.59;;;10.10;74.71
61384;BME280;63511;49.346;8.798;2023-03-18T00:46:20;99791.25;;;10.00;74.89
61384;BME280;63511;49.346;8.798;2023-03-18T00:48:48;99805.09;;;9.52;77.70
61384;BME280;63511;49.346;8.798;2023-03-18T00:51:15;99801.13;;;9.56;77.63
61384;BME280;63511;49.346;8.798;2023-03-18T00:53:44;99792.69;;;9.68;76.71
61384;BME280;63511;49.346;8.798;2023-03-18T00:56:13;99799.31;;;9.94;75.15
61384;BME280;63511;49.346;8.798;2023-03-18T00:58:40;99801.84;;;9.94;74.99
61384;BME280;63511;49.346;8.798;2023-03-18T01:01:07;99795.72;;;9.91;74.60
61384;BME280;63511;49.346;8.798;2023-03-18T01:03:36;99797.13;;;10.00;75.22
61384;BME280;63511;49.346;8.798;2023-03-18T01:06:04;99799.06;;;9.76;75.64
61384;BME280;63511;49.346;8.798;2023-03-18T01:08:31;99798.56;;;9.82;75.97
61384;BME280;63511;49.346;8.798;2023-03-18T01:11:01;99795.97;;;10.08;74.50
61384;BME280;63511;49.346;8.798;2023-03-18T01:13:29;99804.41;;;10.09;74.97
61384;BME280;63511;49.346;8.798;2023-03-18T01:15:55;99803.34;;;9.51;77.79
61384;BME280;63511;49.346;8.798;2023-03-18T01:18:22;99797.06;;;9.99;75.56
61384;BME280;63511;49.346;8.798;2023-03-18T01:20:49;99786.13;;;9.85;75.43
61384;BME280;63511;49.346;8.798;2023-03-18T01:23:16;99802.47;;;9.64;77.11
61384;BME280;63511;49.346;8.798;2023-03-18T01:25:43;99806.47;;;10.01;76.04
61384;BME280;63511;49.346;8.798;2023-03-18T01:28:11;99786.22;;;10.00;75.06
61384;BME280;63511;49.346;8.798;2023-03-18T01:30:54;99801.09;;;10.23;74.73
61384;BME280;63511;49.346;8.798;2023-03-18T01:33:22;99799.59;;;9.86;75.90
61384;BME280;63511;49.346;8.798;2023-03-18T01:35:53;99812.91;;;9.70;76.54
61384;BME280;63511;49.346;8.798;2023-03-18T01:38:25;99805.78;;;10.04;75.70
61384;BME280;63511;49.346;8.798;2023-03-18T01:40:55;99803.59;;;10.23;74.45
61384;BME280;63511;49.346;8.798;2023-03-18T01:43:27;99798.72;;;9.98;75.58
61384;BME280;63511;49.346;8.798;2023-03-18T01:45:57;99808.03;;;9.99;74.63
61384;BME280;63511;49.346;8.798;2023-03-18T01:48:26;99804.47;;;10.10;74.28
61384;BME280;63511;49.346;8.798;2023-03-18T01:50:56;99804.22;;;10.06;74.77
61384;BME280;63511;49.346;8.798;2023-03-18T01:53:24;99799.44;;;10.10;74.42
61384;BME280;63511;49.346;8.798;2023-03-18T01:55:52;99797.25;;;10.02;74.44
61384;BME280;63511;49.346;8.798;2023-03-18T01:58:24;99799.47;;;9.56;76.79
61384;BME280;63511;49.346;8.798;2023-03-18T02:00:58;99794.50;;;9.71;75.59
61384;BME280;63511;49.346;8.798;2023-03-18T02:03:31;99793.69;;;9.85;74.56
61384;BME280;63511;49.346;8.798;2023-03-18T02:05:59;99798.66;;;9.70;75.17
61384;BME280;63511;49.346;8.798;2023-03-18T02:08:27;99789.84;;;9.64;74.95
61384;BME280;63511;49.346;8.798;2023-03-18T02:10:54;99795.06;;;9.80;74.42
61384;BME280;63511;49.346;8.798;2023-03-18T02:13:21;99786.94;;;9.84;74.80
61384;BME280;63511;49.346;8.798;2023-03-18T02:15:50;99793.66;;;9.44;76.08
61384;BME280;63511;49.346;8.798;2023-03-18T02:18:22;99789.09;;;9.38;76.45
61384;BME280;63511;49.346;8.798;2023-03-18T02:21:07;99789.59;;;9.33;76.04
61384;BME280;63511;49.346;8.798;2023-03-18T02:23:44;99795.53;;;9.20;76.29
61384;BME280;63511;49.346;8.798;2023-03-18T02:26:19;99805.50;;;9.19;77.06
61384;BME280;63511;49.346;8.798;2023-03-18T02:28:51;99795.03;;;9.39;76.40
61384;BME280;63511;49.346;8.798;2023-03-18T02:31:20;99799.41;;;9.42;75.73
61384;BME280;63511;49.346;8.798;2023-03-18T02:33:47;99800.75;;;9.36;76.13
61384;BME280;63511;49.346;8.798;2023-03-18T02:36:21;99803.75;;;9.44;75.68
61384;BME280;63511;49.346;8.798;2023-03-18T02:38:49;99812.84;;;9.29;75.57
61384;BME280;63511;49.346;8.798;2023-03-18T02:41:18;99809.84;;;9.34;75.71
61384;BME280;63511;49.346;8.798;2023-03-18T02:43:47;99816.84;;;9.25;75.54
61384;BME280;63511;49.346;8.798;2023-03-18T02:46:22;99806.75;;;8.99;77.06
61384;BME280;63511;49.346;8.798;2023-03-18T02:48:52;99815.66;;;9.07;77.29
61384;BME280;63511;49.346;8.798;2023-03-18T02:51:19;99824.19;;;9.09;76.57
61384;BME280;63511;49.346;8.798;2023-03-18T02:53:46;99825.66;;;9.32;76.51
61384;BME280;63511;49.346;8.798;2023-03-18T02:56:13;99824.94;;;8.95;76.02
61384;BME280;63511;49.346;8.798;2023-03-18T02:58:42;99830.16;;;8.98;76.95
61384;BME280;63511;49.346;8.798;2023-03-18T03:01:10;99810.44;;;9.04;76.63
61384;BME280;63511;49.346;8.798;2023-03-18T03:03:38;99818.47;;;8.99;76.42
61384;BME280;63511;49.346;8.798;2023-03-18T03:06:06;99816.19;;;8.77;78.51
61384;BME280;63511;49.346;8.798;2023-03-18T03:08:33;99821.84;;;9.12;77.10
61384;BME280;63511;49.346;8.798;2023-03-18T03:10:59;99825.47;;;9.16;76.21
61384;BME280;63511;49.346;8.798;2023-03-18T03:13:26;99832.09;;;9.02;76.40
61384;BME280;63511;49.346;8.798;2023-03-18T03:15:53;99822.06;;;9.15;76.46
61384;BME280;63511;49.346;8.798;2023-03-18T03:18:20;99832.44;;;9.07;76.84
61384;BME280;63511;49.346;8.798;2023-03-18T03:20:49;99818.97;;;9.32;76.17
61384;BME280;63511;49.346;8.798;2023-03-18T03:23:16;99823.44;;;9.36;76.24
61384;BME280;63511;49.346;8.798;2023-03-18T03:25:48;99829.41;;;8.86;78.51
61384;BME280;63511;49.346;8.798;2023-03-18T03:28:15;99831.91;;;8.99;78.72
61384;BME280;63511;49.346;8.798;2023-03-18T03:30:42;99814.19;;;8.98;78.23
61384;BME280;63511;49.346;8.798;2023-03-18T03:33:09;99815.84;;;9.23;77.55
61384;BME280;63511;49.346;8.798;2023-03-18T03:35:37;99826.13;;;9.00;79.40
61384;BME280;63511;49.346;8.798;2023-03-18T03:38:05;99826.63;;;9.47;77.72
61384;BME280;63511;49.346;8.798;2023-03-18T03:40:32;99821.66;;;9.49;76.34
61384;BME280;63511;49.346;8.798;2023-03-18T03:43:02;99834.75;;;9.30;77.76
61384;BME280;63511;49.346;8.798;2023-03-18T03:45:30;99836.41;;;9.16;77.85
61384;BME280;63511;49.346;8.798;2023-03-18T03:47:58;99845.03;;;9.33;78.43
61384;BME280;63511;49.346;8.798;2023-03-18T03:50:25;99836.22;;;9.39;77.89
61384;BME280;63511;49.346;8.798;2023-03-18T03:52:51;99844.63;;;9.14;77.76
61384;BME280;63511;49.346;8.798;2023-03-18T03:55:20;99843.69;;;9.25;78.08
61384;BME280;63511;49.346;8.798;2023-03-18T03:57:47;99843.59;;;9.50;77.13
61384;BME280;63511;49.346;8.798;2023-03-18T04:00:16;99837.47;;;9.46;77.04
61384;BME280;63511;49.346;8.798;2023-03-18T04:02:45;99826.03;;;9.12;78.34
61384;BME280;63511;49.346;8.798;2023-03-18T04:05:14;99836.03;;;9.36;78.63
61384;BME280;63511;49.346;8.798;2023-03-18T04:07:42;99846.19;;;9.12;79.28
61384;BME280;63511;49.346;8.798;2023-03-18T04:10:10;99850.75;;;9.30;78.43
61384;BME280;63511;49.346;8.798;2023-03-18T04:12:39;99856.19;;;9.63;77.34
61384;BME280;63511;49.346;8.798;2023-03-18T04:15:07;99847.25;;;9.81;76.19
61384;BME280;63511;49.346;8.798;2023-03-18T04:17:35;99852.50;;;9.45;77.55
61384;BME280;63511;49.346;8.798;2023-03-18T04:20:03;99850.38;;;9.37;77.59
61384;BME280;63511;49.346;8.798;2023-03-18T04:22:30;99848.22;;;9.70;77.32
61384;BME280;63511;49.346;8.798;2023-03-18T04:24:57;99850.25;;;9.89;75.96
61384;BME280;63511;49.346;8.798;2023-03-18T04:27:24;99847.53;;;9.86;75.98
61384;BME280;63511;49.346;8.798;2023-03-18T04:29:52;99850.34;;;9.77;76.46
61384;BME280;63511;49.346;8.798;2023-03-18T04:32:19;99851.72;;;9.46;78.58
61384;BME280;63511;49.346;8.798;2023-03-18T04:34:45;99857.91;;;9.64;77.75
61384;BME280;63511;49.346;8.798;2023-03-18T04:37:12;99842.78;;;9.77;77.33
61384;BME280;63511;49.346;8.798;2023-03-18T04:39:44;99847.28;;;9.68;78.01
61384;BME280;63511;49.346;8.798;2023-03-18T04:42:10;99832.81;;;9.78;77.16
61384;BME280;63511;49.346;8.798;2023-03-18T04:44:37;99830.81;;;9.47;79.17
61384;BME280;63511;49.346;8.798;2023-03-18T04:47:08;99846.88;;;9.49;78.55
61384;BME280;63511;49.346;8.798;2023-03-18T04:49:34;99854.81;;;9.28;79.78
61384;BME280;63511;49.346;8.798;2023-03-18T04:52:02;99856.47;;;9.54;78.91
61384;BME280;63511;49.346;8.798;2023-03-18T04:54:28;99857.09;;;10.04;77.51
61384;BME280;63511;49.346;8.798;2023-03-18T04:56:55;99856.16;;;9.89;77.27
61384;BME280;63511;49.346;8.798;2023-03-18T04:59:22;99857.16;;;9.78;78.85
61384;BME280;63511;49.346;8.798;2023-03-18T05:01:48;99851.84;;;10.01;78.10
61384;BME280;63511;49.346;8.798;2023-03-18T05:04:16;99851.63;;;10.11;77.47
61384;BME280;63511;49.346;8.798;2023-03-18T05:06:43;99843.72;;;10.18;76.84
61384;BME280;63511;49.346;8.798;2023-03-18T05:09:13;99844.25;;;10.28;75.58
61384;BME280;63511;49.346;8.798;2023-03-18T05:11:39;99845.50;;;10.34;75.88
61384;BME280;63511;49.346;8.798;2023-03-18T05:14:06;99849.84;;;10.37;75.61
61384;BME280;63511;49.346;8.798;2023-03-18T05:16:32;99845.28;;;10.44;75.68
61384;BME280;63511;49.346;8.798;2023-03-18T05:19:00;99843.13;;;10.09;76.74
61384;BME280;63511;49.346;8.798;2023-03-18T05:21:27;99848.56;;;10.15;76.85
61384;BME280;63511;49.346;8.798;2023-03-18T05:23:54;99846.91;;;10.16;76.87
61384;BME280;63511;49.346;8.798;2023-03-18T05:26:21;99859.00;;;10.35;76.57
61384;BME280;63511;49.346;8.798;2023-03-18T05:28:48;99856.91;;;10.14;76.80
61384;BME280;63511;49.346;8.798;2023-03-18T05:31:15;99860.53;;;10.33;76.84
61384;BME280;63511;49.346;8.798;2023-03-18T05:33:42;99848.53;;;10.29;76.80
61384;BME280;63511;49.346;8.798;2023-03-18T05:36:08;99839.41;;;10.31;76.84
61384;BME280;63511;49.346;8.798;2023-03-18T05:38:37;99855.81;;;10.52;76.05
61384;BME280;63511;49.346;8.798;2023-03-18T05:41:03;99838.59;;;10.32;76.43
61384;BME280;63511;49.346;8.798;2023-03-18T05:43:30;99862.78;;;10.41;76.14
61384;BME280;63511;49.346;8.798;2023-03-18T05:45:57;99849.97;;;10.53;76.12
61384;BME280;63511;49.346;8.798;2023-03-18T05:48:24;99854.16;;;10.52;75.61
61384;BME280;63511;49.346;8.798;2023-03-18T05:50:51;99859.28;;;10.39;75.64
61384;BME280;63511;49.346;8.798;2023-03-18T05:53:18;99857.56;;;10.25;75.79
61384;BME280;63511;49.346;8.798;2023-03-18T05:55:46;99846.84;;;9.75;76.96
61384;BME280;63511;49.346;8.798;2023-03-18T05:58:13;99852.63;;;10.00;75.96
61384;BME280;63511;49.346;8.798;2023-03-18T06:00:39;99844.22;;;9.87;76.98
61384;BME280;63511;49.346;8.798;2023-03-18T06:03:06;99860.56;;;9.78;77.79
61384;BME280;63511;49.346;8.798;2023-03-18T06:05:33;99856.44;;;9.94;76.28
61384;BME280;63511;49.346;8.798;2023-03-18T06:08:00;99868.38;;;9.70;76.41
61384;BME280;63511;49.346;8.798;2023-03-18T06:10:26;99875.56;;;9.51;77.30
61384;BME280;63511;49.346;8.798;2023-03-18T06:12:54;99863.94;;;9.66;76.67
61384;BME280;63511;49.346;8.798;2023-03-18T06:15:21;99869.97;;;9.68;75.59
61384;BME280;63511;49.346;8.798;2023-03-18T06:17:48;99876.06;;;9.32;77.79
61384;BME280;63511;49.346;8.798;2023-03-18T06:20:15;99857.03;;;9.24;77.65
61384;BME280;63511;49.346;8.798;2023-03-18T06:22:43;99869.19;;;9.56;76.59
61384;BME280;63511;49.346;8.798;2023-03-18T06:25:13;99883.06;;;9.62;77.05
61384;BME280;63511;49.346;8.798;2023-03-18T06:27:40;99865.59;;;9.65;77.18
61384;BME280;63511;49.346;8.798;2023-03-18T06:30:09;99867.63;;;9.84;76.72
61384;BME280;63511;49.346;8.798;2023-03-18T06:32:36;99877.41;;;9.66;77.72
61384;BME280;63511;49.346;8.798;2023-03-18T06:35:02;99886.44;;;9.76;77.45
61384;BME280;63511;49.346;8.798;2023-03-18T06:37:29;99879.22;;;10.08;76.54
61384;BME280;63511;49.346;8.798;2023-03-18T06:39:56;99884.38;;;9.97;77.71
61384;BME280;63511;49.346;8.798;2023-03-18T06:42:23;99867.28;;;10.19;76.58
61384;BME280;63511;49.346;8.798;2023-03-18T06:44:50;99886.09;;;10.24;76.53
61384;BME280;63511;49.346;8.798;2023-03-18T06:47:31;99861.91;;;10.41;75.55
61384;BME280;63511;49.346;8.798;2023-03-18T06:49:58;99867.44;;;10.35;76.47
61384;BME280;63511;49.346;8.798;2023-03-18T06:52:26;99865.13;;;10.53;76.51
61384;BME280;63511;49.346;8.798;2023-03-18T06:54:52;99878.09;;;10.31;76.76
61384;BME280;63511;49.346;8.798;2023-03-18T06:57:19;99865.13;;;10.53;76.40
61384;BME280;63511;49.346;8.798;2023-03-18T06:59:46;99877.75;;;10.81;75.66
61384;BME280;63511;49.346;8.798;2023-03-18T07:02:13;99878.47;;;11.07;74.63
61384;BME280;63511;49.346;8.798;2023-03-18T07:04:41;99892.75;;;10.92;74.67
61384;BME280;63511;49.346;8.798;2023-03-18T07:07:08;99890.03;;;11.04;74.78
61384;BME280;63511;49.346;8.798;2023-03-18T07:09:35;99886.47;;;11.15;74.79
61384;BME280;63511;49.346;8.798;2023-03-18T07:12:02;99897.03;;;11.23;73.86
61384;BME280;63511;49.346;8.798;2023-03-18T07:14:30;99894.94;;;11.01;74.75
61384;BME280;63511;49.346;8.798;2023-03-18T07:16:57;99891.13;;;10.65;75.31
61384;BME280;63511;49.346;8.798;2023-03-18T07:19:24;99903.53;;;11.04;74.59
61384;BME280;63511;49.346;8.798;2023-03-18T07:21:52;99896.69;;;11.02;74.28
61384;BME280;63511;49.346;8.798;2023-03-18T07:24:19;99910.03;;;11.29;74.72
61384;BME280;63511;49.346;8.798;2023-03-18T07:26:47;99897.47;;;11.16;74.55
61384;BME280;63511;49.346;8.798;2023-03-18T07:29:14;99903.91;;;11.11;75.08
61384;BME280;63511;49.346;8.798;2023-03-18T07:31:41;99911.22;;;11.06;75.23
61384;BME280;63511;49.346;8.798;2023-03-18T07:34:08;99914.63;;;11.06;75.35
61384;BME280;63511;49.346;8.798;2023-03-18T07:36:34;99902.59;;;11.02;75.12
61384;BME280;63511;49.346;8.798;2023-03-18T07:39:04;99905.66;;;11.26;74.80
61384;BME280;63511;49.346;8.798;2023-03-18T07:41:31;99907.13;;;11.08;75.83
61384;BME280;63511;49.346;8.798;2023-03-18T07:44:06;99911.16;;;11.34;74.63
61384;BME280;63511;49.346;8.798;2023-03-18T07:46:33;99914.81;;;11.39;74.66
61384;BME280;63511;49.346;8.798;2023-03-18T07:49:00;99903.38;;;11.16;75.29
61384;BME280;63511;49.346;8.798;2023-03-18T07:51:26;99910.78;;;11.57;74.66
61384;BME280;63511;49.346;8.798;2023-03-18T07:53:53;99914.47;;;11.33;75.58
61384;BME280;63511;49.346;8.798;2023-03-18T07:56:22;99903.31;;;12.04;73.63
61384;BME280;63511;49.346;8.798;2023-03-18T07:58:48;99919.38;;;12.05;72.38
61384;BME280;63511;49.346;8.798;2023-03-18T08:01:16;99917.91;;;11.93;72.83
61384;BME280;63511;49.346;8.798;2023-03-18T08:03:43;99916.50;;;12.29;71.81
61384;BME280;63511;49.346;8.798;2023-03-18T08:06:10;99908.94;;;12.62;70.75
61384;BME280;63511;49.346;8.798;2023-03-18T08:08:37;99898.88;;;12.47;71.16
61384;BME280;63511;49.346;8.798;2023-03-18T08:11:04;99904.66;;;12.45;71.46
61384;BME280;63511;49.346;8.798;2023-03-18T08:13:34;99890.66;;;12.67;70.14
61384;BME280;63511;49.346;8.798;2023-03-18T08:16:01;99899.78;;;12.64;70.85
61384;BME280;63511;49.346;8.798;2023-03-18T08:18:28;99900.28;;;12.91;69.19
61384;BME280;63511;49.346;8.798;2023-03-18T08:20:55;99889.59;;;12.96;69.32
61384;BME280;63511;49.346;8.798;2023-03-18T08:23:21;99903.91;;;13.28;68.52
61384;BME280;63511;49.346;8.798;2023-03-18T08:25:49;99921.47;;;13.41;69.44
61384;BME280;63511;49.346;8.798;2023-03-18T08:28:17;99897.03;;;13.43;68.48
61384;BME280;63511;49.346;8.798;2023-03-18T08:30:45;99900.31;;;13.94;67.22
61384;BME280;63511;49.346;8.798;2023-03-18T08:33:15;99888.84;;;14.02;67.30
61384;BME280;63511;49.346;8.798;2023-03-18T08:35:46;99892.09;;;14.17;66.62
61384;BME280;63511;49.346;8.798;2023-03-18T08:38:13;99894.38;;;14.48;65.54
61384;BME280;63511;49.346;8.798;2023-03-18T08:40:39;99890.69;;;14.80;63.87
61384;BME280;63511;49.346;8.798;2023-03-18T08:43:07;99898.47;;;14.64;62.24
61384;BME280;63511;49.346;8.798;2023-03-18T08:45:35;99907.75;;;15.02;62.40
61384;BME280;63511;49.346;8.798;2023-03-18T08:48:03;99905.47;;;14.88;58.26
61384;BME280;63511;49.346;8.798;2023-03-18T08:50:29;99902.00;;;15.47;58.22
61384;BME280;63511;49.346;8.798;2023-03-18T08:53:03;99898.59;;;15.26;56.32
61384;BME280;63511;49.346;8.798;2023-03-18T08:55:32;99892.28;;;15.58;53.77
61384;BME280;63511;49.346;8.798;2023-03-18T08:58:00;99899.56;;;15.69;53.71
61384;BME280;63511;49.346;8.798;2023-03-18T09:00:28;99898.81;;;15.94;53.55
61384;BME280;63511;49.346;8.798;2023-03-18T09:02:55;99903.16;;;15.97;54.31
61384;BME280;63511;49.346;8.798;2023-03-18T09:05:23;99884.88;;;15.85;53.73
61384;BME280;63511;49.346;8.798;2023-03-18T09:07:50;99895.59;;;15.98;51.13
61384;BME280;63511;49.346;8.798;2023-03-18T09:10:18;99897.19;;;15.96;51.02
61384;BME280;63511;49.346;8.798;2023-03-18T09:12:45;99894.09;;;16.26;52.60
61384;BME280;63511;49.346;8.798;2023-03-18T09:15:14;99891.88;;;16.12;49.74
61384;BME280;63511;49.346;8.798;2023-03-18T09:17:41;99895.91;;;16.52;51.53
61384;BME280;63511;49.346;8.798;2023-03-18T09:20:10;99885.72;;;16.07;52.03
61384;BME280;63511;49.346;8.798;2023-03-18T09:22:39;99878.16;;;16.55;50.29
61384;BME280;63511;49.346;8.798;2023-03-18T09:25:07;99864.47;;;16.53;48.73
61384;BME280;63511;49.346;8.798;2023-03-18T09:27:33;99871.66;;;16.39;49.45
61384;BME280;63511;49.346;8.798;2023-03-18T09:30:00;99883.69;;;16.66;48.85
61384;BME280;63511;49.346;8.798;2023-03-18T09:35:05;99872.75;;;16.68;45.94
61384;BME280;63511;49.346;8.798;2023-03-18T09:37:33;99874.75;;;17.02;45.41
61384;BME280;63511;49.346;8.798;2023-03-18T09:40:02;99872.13;;;16.53;45.24
61384;BME280;63511;49.346;8.798;2023-03-18T09:42:39;99867.25;;;17.07;45.76
61384;BME280;63511;49.346;8.798;2023-03-18T09:45:16;99866.13;;;17.24;44.25
61384;BME280;63511;49.346;8.798;2023-03-18T09:47:57;99859.91;;;17.68;45.10
61384;BME280;63511;49.346;8.798;2023-03-18T09:50:35;99856.53;;;17.96;46.37
61384;BME280;63511;49.346;8.798;2023-03-18T09:53:12;99855.91;;;18.04;44.55
61384;BME280;63511;49.346;8.798;2023-03-18T09:55:45;99844.72;;;17.72;44.47
61384;BME280;63511;49.346;8.798;2023-03-18T09:58:23;99847.66;;;17.84;44.07
61384;BME280;63511;49.346;8.798;2023-03-18T10:00:52;99844.66;;;17.69;44.66
61384;BME280;63511;49.346;8.798;2023-03-18T10:03:28;99844.44;;;17.90;43.26
61384;BME280;63511;49.346;8.798;2023-03-18T10:06:03;99838.91;;;17.76;41.64
61384;BME280;63511;49.346;8.798;2023-03-18T10:08:42;99839.31;;;17.90;41.43
61384;BME280;63511;49.346;8.798;2023-03-18T10:11:22;99832.16;;;18.07;40.56
61384;BME280;63511;49.346;8.798;2023-03-18T10:14:07;99845.75;;;18.06;40.33
61384;BME280;63511;49.346;8.798;2023-03-18T10:16:45;99842.56;;;18.13;41.10
61384;BME280;63511;49.346;8.798;2023-03-18T10:19:14;99847.56;;;18.10;43.17
61384;BME280;63511;49.346;8.798;2023-03-18T10:21:45;99848.56;;;18.15;42.78
61384;BME280;63511;49.346;8.798;2023-03-18T10:24:23;99851.84;;;18.39;40.61
61384;BME280;63511;49.346;8.798;2023-03-18T10:27:01;99847.44;;;18.35;41.14
61384;BME280;63511;49.346;8.798;2023-03-18T10:29:38;99849.28;;;18.39;42.43
61384;BME280;63511;49.346;8.798;2023-03-18T10:32:10;99838.13;;;18.67;42.73
61384;BME280;63511;49.346;8.798;2023-03-18T10:34:53;99837.19;;;18.63;42.00
61384;BME280;63511;49.346;8.798;2023-03-18T10:37:30;99840.88;;;18.43;42.58
61384;BME280;63511;49.346;8.798;2023-03-18T10:40:09;99841.44;;;18.33;41.40
61384;BME280;63511;49.346;8.798;2023-03-18T10:42:39;99827.25;;;18.74;41.16
61384;BME280;63511;49.346;8.798;2023-03-18T10:45:14;99823.44;;;18.93;42.07
61384;BME280;63511;49.346;8.798;2023-03-18T10:47:44;99817.81;;;18.73;42.09
61384;BME280;63511;49.346;8.798;2023-03-18T10:50:17;99821.75;;;19.62;41.24
61384;BME280;63511;49.346;8.798;2023-03-18T10:52:47;99829.38;;;18.90;41.84
61384;BME280;63511;49.346;8.798;2023-03-18T10:55:17;99826.75;;;19.23;41.55
61384;BME280;63511;49.346;8.798;2023-03-18T10:57:46;99836.06;;;19.52;41.82
61384;BME280;63511;49.346;8.798;2023-03-18T11:00:24;99833.75;;;19.65;40.50
61384;BME280;63511;49.346;8.798;2023-03-18T11:02:52;99828.88;;;19.39;39.91
61384;BME280;63511;49.346;8.798;2023-03-18T11:05:23;99836.13;;;19.21;40.54
61384;BME280;63511;49.346;8.798;2023-03-18T11:07:57;99829.94;;;19.13;40.51
61384;BME280;63511;49.346;8.798;2023-03-18T11:10:26;99828.00;;;19.75;39.78
61384;BME280;63511;49.346;8.798;2023-03-18T11:12:57;99818.34;;;20.02;40.27
61384;BME280;63511;49.346;8.798;2023-03-18T11:15:34;99814.84;;;19.97;39.08
61384;BME280;63511;49.346;8.798;2023-03-18T11:18:02;99815.41;;;20.66;40.88
61384;BME280;63511;49.346;8.798;2023-03-18T11:20:43;99815.78;;;20.02;38.20
61384;BME280;63511;49.346;8.798;2023-03-18T11:23:15;99817.06;;;19.82;38.69
61384;BME280;63511;49.346;8.798;2023-03-18T11:25:54;99820.47;;;19.81;39.85
61384;BME280;63511;49.346;8.798;2023-03-18T11:28:23;99815.41;;;20.24;36.77
61384;BME280;63511;49.346;8.798;2023-03-18T11:30:55;99814.78;;;20.34;40.00
61384;BME280;63511;49.346;8.798;2023-03-18T11:33:23;99814.41;;;20.18;39.68
61384;BME280;63511;49.346;8.798;2023-03-18T11:35:56;99805.84;;;20.17;40.23
61384;BME280;63511;49.346;8.798;2023-03-18T11:38:25;99819.22;;;20.03;40.11
61384;BME280;63511;49.346;8.798;2023-03-18T11:40:53;99810.44;;;19.52;42.04
61384;BME280;63511;49.346;8.798;2023-03-18T11:43:24;99804.97;;;20.17;39.16
61384;BME280;63511;49.346;8.798;2023-03-18T11:45:55;99800.84;;;20.23;39.17
61384;BME280;63511;49.346;8.798;2023-03-18T11:48:28;99801.19;;;19.98;38.03
61384;BME280;63511;49.346;8.798;2023-03-18T11:51:05;99799.09;;;20.22;39.93
61384;BME280;63511;49.346;8.798;2023-03-18T11:53:38;99798.03;;;20.52;38.88
61384;BME280;63511;49.346;8.798;2023-03-18T11:56:08;99798.22;;;20.64;35.81
61384;BME280;63511;49.346;8.798;2023-03-18T12:01:26;99788.81;;;20.21;40.39
61384;BME280;63511;49.346;8.798;2023-03-18T12:06:40;99776.44;;;20.00;37.73
61384;BME280;63511;49.346;8.798;2023-03-18T12:09:10;99780.59;;;19.93;38.53
61384;BME280;63511;49.346;8.798;2023-03-18T12:11:44;99781.00;;;19.73;37.34
61384;BME280;63511;49.346;8.798;2023-03-18T12:14:17;99773.03;;;20.01;37.35
61384;BME280;63511;49.346;8.798;2023-03-18T12:16:54;99774.13;;;20.12;37.29
61384;BME280;63511;49.346;8.798;2023-03-18T12:19:27;99777.22;;;19.96;40.31
61384;BME280;63511;49.346;8.798;2023-03-18T12:22:00;99778.69;;;20.25;39.64
61384;BME280;63511;49.346;8.798;2023-03-18T12:24:38;99775.81;;;20.10;38.02
61384;BME280;63511;49.346;8.798;2023-03-18T12:27:10;99774.94;;;20.10;38.21
61384;BME280;63511;49.346;8.798;2023-03-18T12:29:44;99773.16;;;20.07;39.57
61384;BME280;63511;49.346;8.798;2023-03-18T12:32:20;99770.03;;;20.20;37.41
61384;BME280;63511;49.346;8.798;2023-03-18T12:34:57;99768.41;;;20.25;36.93
61384;BME280;63511;49.346;8.798;2023-03-18T12:37:27;99769.50;;;20.35;37.52
61384;BME280;63511;49.346;8.798;2023-03-18T12:40:01;99762.78;;;20.01;36.65
61384;BME280;63511;49.346;8.798;2023-03-18T12:42:39;99768.44;;;20.27;36.73
61384;BME280;63511;49.346;8.798;2023-03-18T12:45:10;99765.41;;;20.46;37.25
61384;BME280;63511;49.346;8.798;2023-03-18T12:47:41;99763.53;;;20.36;36.62
61384;BME280;63511;49.346;8.798;2023-03-18T12:50:13;99759.44;;;20.47;38.27
61384;BME280;63511;49.346;8.798;2023-03-18T12:52:41;99758.16;;;20.70;41.56
61384;BME280;63511;49.346;8.798;2023-03-18T12:55:11;99755.00;;;20.88;39.78
61384;BME280;63511;49.346;8.798;2023-03-18T12:57:39;99751.44;;;20.78;35.55
61384;BME280;63511;49.346;8.798;2023-03-18T13:00:12;99750.94;;;21.01;35.03
61384;BME280;63511;49.346;8.798;2023-03-18T13:02:44;99750.34;;;21.15;36.60
61384;BME280;63511;49.346;8.798;2023-03-18T13:05:18;99753.63;;;21.07;35.83
61384;BME280;63511;49.346;8.798;2023-03-18T13:07:48;99752.94;;;20.67;38.02
61384;BME280;63511;49.346;8.798;2023-03-18T13:10:19;99749.78;;;20.81;38.02
61384;BME280;63511;49.346;8.798;2023-03-18T13:12:46;99743.69;;;20.75;36.97
61384;BME280;63511;49.346;8.798;2023-03-18T13:15:16;99740.75;;;21.05;36.05
61384;BME280;63511;49.346;8.798;2023-03-18T13:17:48;99733.88;;;21.04;35.43
61384;BME280;63511;49.346;8.798;2023-03-18T13:20:17;99732.97;;;21.01;37.93
61384;BME280;63511;49.346;8.798;2023-03-18T13:22:51;99731.66;;;21.24;38.93
61384;BME280;63511;49.346;8.798;2023-03-18T13:25:24;99728.63;;;21.52;36.03